Time;durP1;ratioP1;P1;durP2;ratioP2;P2;SDS_P1;SDS_P2;PMS_P1;PMS_P2;Temp;Humidity;BMP_temperature;BMP_pressure;BME280_temperature;BME280_humidity;BME280_pressure;Samples;Min_cycle;Max_cycle;Signal;HPM_P1;HPM_P2
2024/01/14 06:02:18;;;;;;;70.17;21.13;;;;;;;;;;5592868;23;20906;-74
2024/01/14 06:04:44;;;;;;;90.00;24.43;;;;;;;;;;4976723;28;20467;-75
2024/01/14 06:07:10;;;;;;;85.37;23.03;;;;;;;;;;4977086;28;20407;-73
2024/01/14 06:09:36;;;;;;;80.87;25.87;;;;;;;;;;4976929;28;20475;-74
2024/01/14 06:12:02;;;;;;;79.93;23.17;;;;;;;;;;4977303;28;20439;-74
2024/01/14 06:14:28;;;;;;;90.70;24.50;;;;;;;;;;4977199;28;20973;-74
2024/01/14 06:16:54;;;;;;;78.13;21.20;;;;;;;;;;4998007;23;20538;-75
2024/01/14 06:19:20;;;;;;;90.73;24.30;;;;;;;;;;4975863;28;20412;-75
2024/01/14 06:21:46;;;;;;;88.80;22.80;;;;;;;;;;4975970;28;20404;-74
2024/01/14 06:24:14;;;;;;;91.20;23.00;;;;;;;;;;4975744;28;20864;-75
2024/01/14 06:26:39;;;;;;;78.13;23.03;;;;;;;;;;4975315;28;20439;-75
2024/01/14 06:29:05;;;;;;;91.83;25.77;;;;;;;;;;4975517;28;20412;-75
2024/01/14 06:31:31;;;;;;;78.30;21.37;;;;;;;;;;4975501;28;20448;-75
2024/01/14 06:33:58;;;;;;;85.53;24.93;;;;;;;;;;4975508;28;20466;-75
2024/01/14 06:36:24;;;;;;;76.70;25.20;;;;;;;;;;4975353;28;20436;-75
2024/01/14 06:38:50;;;;;;;82.40;24.73;;;;;;;;;;4975781;28;20499;-74
2024/01/14 06:41:19;;;;;;;80.43;23.33;;;;;;;;;;4975776;28;20867;-75
2024/01/14 06:43:45;;;;;;;101.97;25.87;;;;;;;;;;4976274;28;20455;-74
2024/01/14 06:46:11;;;;;;;87.80;24.27;;;;;;;;;;4980370;28;20936;-75
2024/01/14 06:48:37;;;;;;;81.43;23.87;;;;;;;;;;4985782;28;20408;-75
2024/01/14 06:51:03;;;;;;;74.30;23.37;;;;;;;;;;4983488;28;20424;-74
2024/01/14 06:53:29;;;;;;;79.20;21.87;;;;;;;;;;4975994;28;20419;-76
2024/01/14 06:55:55;;;;;;;80.77;24.10;;;;;;;;;;4975512;28;20871;-75
2024/01/14 06:58:21;;;;;;;86.23;23.00;;;;;;;;;;4975476;28;20857;-74
2024/01/14 07:00:47;;;;;;;71.37;21.87;;;;;;;;;;4975144;28;20877;-75
2024/01/14 07:03:13;;;;;;;69.50;21.10;;;;;;;;;;4974238;28;20506;-75
2024/01/14 07:05:39;;;;;;;83.87;23.00;;;;;;;;;;4974733;28;20424;-76
2024/01/14 07:08:06;;;;;;;64.80;20.30;;;;;;;;;;4975031;28;20440;-76
2024/01/14 07:10:32;;;;;;;79.57;21.03;;;;;;;;;;4973756;28;20424;-75
2024/01/14 07:12:58;;;;;;;59.30;19.20;;;;;;;;;;4974926;28;20970;-75
2024/01/14 07:15:24;;;;;;;69.90;20.53;;;;;;;;;;4974517;28;20463;-75
2024/01/14 07:17:50;;;;;;;66.33;18.53;;;;;;;;;;4973875;28;20828;-75
2024/01/14 07:20:16;;;;;;;74.73;21.17;;;;;;;;;;4973877;28;20416;-75
2024/01/14 07:22:42;;;;;;;72.83;21.50;;;;;;;;;;4973670;28;20918;-75
2024/01/14 07:25:10;;;;;;;69.70;22.07;;;;;;;;;;4973458;28;20479;-74
2024/01/14 07:27:36;;;;;;;76.80;23.90;;;;;;;;;;4973680;28;20538;-76
2024/01/14 07:30:03;;;;;;;59.87;21.07;;;;;;;;;;4973456;28;20531;-74
2024/01/14 07:32:29;;;;;;;79.60;22.67;;;;;;;;;;4973917;28;20415;-75
2024/01/14 07:34:54;;;;;;;71.43;23.20;;;;;;;;;;4978957;28;20918;-74
2024/01/14 07:37:20;;;;;;;78.30;21.57;;;;;;;;;;4980083;28;20939;-74
2024/01/14 07:39:46;;;;;;;80.80;22.53;;;;;;;;;;4973497;28;20485;-75
2024/01/14 07:42:12;;;;;;;76.57;21.63;;;;;;;;;;4973439;28;20415;-75
2024/01/14 07:44:39;;;;;;;86.10;22.33;;;;;;;;;;4973422;28;20467;-75
2024/01/14 07:47:05;;;;;;;74.43;21.83;;;;;;;;;;4973329;28;20439;-75
2024/01/14 07:49:30;;;;;;;79.37;22.80;;;;;;;;;;4973560;28;20503;-75
2024/01/14 07:51:57;;;;;;;77.83;23.10;;;;;;;;;;4973636;28;20827;-75
2024/01/14 07:54:23;;;;;;;70.83;23.50;;;;;;;;;;4973368;28;20427;-75
2024/01/14 07:56:49;;;;;;;72.50;23.63;;;;;;;;;;4973186;28;20519;-74
2024/01/14 07:59:15;;;;;;;67.37;22.07;;;;;;;;;;4973157;28;20416;-75
2024/01/14 08:01:41;;;;;;;76.23;23.17;;;;;;;;;;4973252;28;20416;-75
2024/01/14 08:04:07;;;;;;;70.27;22.03;;;;;;;;;;4973216;28;20550;-75
2024/01/14 08:06:33;;;;;;;62.67;21.10;;;;;;;;;;4972937;28;20452;-74
2024/01/14 08:08:59;;;;;;;76.43;24.33;;;;;;;;;;4973233;28;20903;-75
2024/01/14 08:11:25;;;;;;;70.23;24.00;;;;;;;;;;4973058;28;20813;-75
2024/01/14 08:13:51;;;;;;;71.80;20.30;;;;;;;;;;4973089;28;20435;-75
2024/01/14 08:16:17;;;;;;;70.70;20.43;;;;;;;;;;4936448;28;1050411;-75
2024/01/14 08:18:43;;;;;;;72.13;20.90;;;;;;;;;;4973640;28;20235;-75
2024/01/14 08:21:10;;;;;;;67.17;19.60;;;;;;;;;;4973621;28;20420;-76
2024/01/14 08:23:36;;;;;;;80.17;21.77;;;;;;;;;;4972316;28;21018;-74
2024/01/14 08:26:03;;;;;;;67.10;21.40;;;;;;;;;;4973422;28;20810;-75
2024/01/14 08:28:32;;;;;;;78.90;23.73;;;;;;;;;;4973790;28;20418;-77
2024/01/14 08:30:58;;;;;;;78.03;23.50;;;;;;;;;;4973740;28;20786;-75
2024/01/14 08:33:24;;;;;;;84.50;23.67;;;;;;;;;;4973885;28;20416;-76
2024/01/14 08:35:50;;;;;;;87.43;24.60;;;;;;;;;;4973644;28;20835;-76
2024/01/14 08:38:16;;;;;;;73.47;22.60;;;;;;;;;;4973518;28;20424;-75
2024/01/14 08:40:42;;;;;;;71.13;22.50;;;;;;;;;;4973548;28;20416;-75
2024/01/14 08:43:08;;;;;;;73.17;22.37;;;;;;;;;;4974153;28;20495;-74
2024/01/14 08:45:34;;;;;;;74.73;23.33;;;;;;;;;;4973587;28;20880;-75
2024/01/14 08:48:00;;;;;;;79.00;24.00;;;;;;;;;;4973487;28;20439;-75
2024/01/14 08:50:26;;;;;;;81.77;26.30;;;;;;;;;;4973568;28;20447;-75
2024/01/14 08:52:52;;;;;;;78.27;25.33;;;;;;;;;;4973655;28;20421;-75
2024/01/14 08:55:18;;;;;;;88.10;28.60;;;;;;;;;;4973682;28;20755;-74
2024/01/14 08:57:44;;;;;;;75.17;24.67;;;;;;;;;;4972505;28;20914;-75
2024/01/14 09:00:10;;;;;;;72.40;23.97;;;;;;;;;;4980112;28;20506;-75
2024/01/14 09:02:36;;;;;;;65.47;23.77;;;;;;;;;;4981019;28;20427;-73
2024/01/14 09:05:02;;;;;;;85.53;26.07;;;;;;;;;;4977567;28;20963;-75
2024/01/14 09:07:28;;;;;;;70.73;24.50;;;;;;;;;;4981012;28;20952;-74
2024/01/14 09:09:54;;;;;;;79.93;24.53;;;;;;;;;;4981944;28;20767;-74
2024/01/14 09:12:20;;;;;;;79.70;25.50;;;;;;;;;;4978617;28;20411;-75
2024/01/14 09:14:46;;;;;;;73.13;24.47;;;;;;;;;;4973348;28;20837;-74
2024/01/14 09:17:12;;;;;;;61.50;22.20;;;;;;;;;;4973321;28;20466;-76
2024/01/14 09:19:38;;;;;;;89.50;28.73;;;;;;;;;;4971732;28;20445;-74
2024/01/14 09:22:04;;;;;;;76.50;25.23;;;;;;;;;;4962850;28;20472;-75
2024/01/14 09:24:30;;;;;;;67.97;22.67;;;;;;;;;;4969541;28;20492;-75
2024/01/14 09:26:56;;;;;;;77.60;21.73;;;;;;;;;;4968928;28;20523;-75
2024/01/14 09:29:22;;;;;;;63.60;22.60;;;;;;;;;;4970794;28;20413;-75
2024/01/14 09:31:48;;;;;;;73.23;23.70;;;;;;;;;;4972514;28;20430;-73
2024/01/14 09:34:14;;;;;;;70.53;24.67;;;;;;;;;;4975088;28;20486;-76
2024/01/14 09:36:41;;;;;;;75.90;24.40;;;;;;;;;;4976364;28;20460;-74
2024/01/14 09:39:10;;;;;;;79.70;23.33;;;;;;;;;;4976345;28;20415;-75
2024/01/14 09:41:45;;;;;;;61.20;21.50;;;;;;;;;;4975029;28;20430;-73
2024/01/14 09:44:17;;;;;;;65.53;23.73;;;;;;;;;;4976829;28;20560;-76
2024/01/14 09:46:44;;;;;;;65.07;23.10;;;;;;;;;;4967172;28;20536;-76
2024/01/14 09:49:10;;;;;;;71.53;25.33;;;;;;;;;;4986099;28;20462;-76
2024/01/14 09:51:37;;;;;;;64.63;23.07;;;;;;;;;;4968105;28;20428;-75
2024/01/14 09:54:03;;;;;;;68.23;23.87;;;;;;;;;;4976121;28;20487;-77
2024/01/14 09:56:33;;;;;;;70.53;22.87;;;;;;;;;;4960782;28;20442;-76
2024/01/14 09:59:00;;;;;;;72.90;22.40;;;;;;;;;;4969960;28;20416;-77
2024/01/14 10:01:33;;;;;;;64.77;20.27;;;;;;;;;;4966919;28;20971;-76
2024/01/14 10:04:03;;;;;;;85.70;22.50;;;;;;;;;;4964342;28;20461;-76
2024/01/14 10:06:29;;;;;;;79.10;24.93;;;;;;;;;;4984713;28;20474;-75
2024/01/14 10:08:56;;;;;;;77.30;26.57;;;;;;;;;;4970482;28;20424;-75
2024/01/14 10:11:22;;;;;;;66.57;21.47;;;;;;;;;;4970614;28;20416;-76
2024/01/14 10:13:49;;;;;;;72.27;25.07;;;;;;;;;;4970554;28;20412;-76
2024/01/14 10:16:15;;;;;;;75.33;23.37;;;;;;;;;;4959459;28;20463;-75
2024/01/14 10:18:41;;;;;;;70.57;26.00;;;;;;;;;;4971762;28;20785;-76
2024/01/14 10:21:07;;;;;;;62.83;23.90;;;;;;;;;;4964210;28;20431;-78
2024/01/14 10:23:33;;;;;;;72.90;22.10;;;;;;;;;;4967261;28;20468;-76
2024/01/14 10:26:02;;;;;;;73.37;24.03;;;;;;;;;;4969224;28;20459;-78
2024/01/14 10:28:34;;;;;;;66.90;22.83;;;;;;;;;;4966777;28;20420;-77
2024/01/14 10:31:02;;;;;;;82.10;23.87;;;;;;;;;;4970984;28;20482;-77
2024/01/14 10:33:32;;;;;;;71.37;21.97;;;;;;;;;;4969052;28;20416;-76
2024/01/14 10:35:58;;;;;;;76.73;26.00;;;;;;;;;;4965337;28;20927;-73
2024/01/14 10:38:25;;;;;;;84.20;25.37;;;;;;;;;;4964187;28;20456;-76
2024/01/14 10:40:51;;;;;;;80.10;26.47;;;;;;;;;;4966945;28;20477;-76
2024/01/14 10:43:17;;;;;;;68.10;23.20;;;;;;;;;;4968212;28;21017;-76
2024/01/14 10:45:46;;;;;;;76.23;25.20;;;;;;;;;;4964621;28;20533;-75
2024/01/14 10:48:12;;;;;;;63.57;23.70;;;;;;;;;;4972421;28;20431;-77
2024/01/14 10:50:38;;;;;;;80.57;26.60;;;;;;;;;;4964882;28;20816;-74
2024/01/14 10:53:07;;;;;;;74.77;24.60;;;;;;;;;;4969662;28;20516;-74
2024/01/14 10:55:46;;;;;;;71.63;23.90;;;;;;;;;;4967030;28;20413;-74
2024/01/14 10:58:17;;;;;;;86.77;29.20;;;;;;;;;;4956362;28;20424;-75
2024/01/14 11:00:46;;;;;;;73.30;23.93;;;;;;;;;;4955599;28;20417;-75
2024/01/14 11:03:12;;;;;;;64.93;24.37;;;;;;;;;;4955406;28;20454;-74
2024/01/14 11:05:38;;;;;;;66.70;22.53;;;;;;;;;;4963587;28;20411;-75
2024/01/14 11:08:04;;;;;;;62.10;22.37;;;;;;;;;;4962817;28;20753;-74
2024/01/14 11:10:31;;;;;;;65.97;23.57;;;;;;;;;;4962872;28;20934;-74
2024/01/14 11:13:16;;;;;;;75.93;25.40;;;;;;;;;;4955343;28;20870;-74
2024/01/14 11:15:48;;;;;;;74.43;25.40;;;;;;;;;;4966706;28;21022;-74
2024/01/14 11:18:19;;;;;;;69.10;24.23;;;;;;;;;;4968287;28;20420;-74
2024/01/14 11:20:46;;;;;;;65.27;25.53;;;;;;;;;;4971856;28;21327;-76
2024/01/14 11:23:12;;;;;;;66.60;22.63;;;;;;;;;;4963127;28;20518;-74
2024/01/14 11:25:44;;;;;;;76.13;24.80;;;;;;;;;;4954859;28;20435;-75
2024/01/14 11:28:12;;;;;;;62.13;22.00;;;;;;;;;;4966381;28;20500;-71
2024/01/14 11:30:47;;;;;;;66.13;23.17;;;;;;;;;;4954901;28;20792;-75
2024/01/14 11:33:38;;;;;;;63.77;24.03;;;;;;;;;;4955062;28;20416;-73
2024/01/14 11:36:04;;;;;;;66.17;22.73;;;;;;;;;;4964993;28;20518;-74
2024/01/14 11:38:34;;;;;;;68.47;23.03;;;;;;;;;;4973609;28;20439;-73
2024/01/14 11:41:21;;;;;;;55.63;20.73;;;;;;;;;;4954723;28;20758;-74
2024/01/14 11:43:46;;;;;;;67.00;21.63;;;;;;;;;;4959543;28;20887;-73
2024/01/14 11:46:31;;;;;;;61.50;21.80;;;;;;;;;;4966598;28;20440;-74
2024/01/14 11:48:57;;;;;;;70.83;23.07;;;;;;;;;;4955525;28;20423;-74
2024/01/14 11:51:23;;;;;;;54.60;20.50;;;;;;;;;;4954308;28;20748;-74
2024/01/14 11:53:49;;;;;;;70.23;21.90;;;;;;;;;;4955749;28;20453;-74
2024/01/14 11:56:30;;;;;;;66.80;24.63;;;;;;;;;;4967251;28;20432;-74
2024/01/14 11:58:59;;;;;;;73.73;24.13;;;;;;;;;;4973203;28;20412;-74
2024/01/14 12:01:28;;;;;;;65.53;22.30;;;;;;;;;;4972551;28;20424;-74
2024/01/14 12:04:04;;;;;;;62.00;23.80;;;;;;;;;;4973931;28;20542;-74
2024/01/14 12:06:40;;;;;;;54.97;22.47;;;;;;;;;;4973675;28;20542;-74
2024/01/14 12:09:06;;;;;;;69.60;21.97;;;;;;;;;;4972343;28;20498;-74
2024/01/14 12:11:33;;;;;;;64.07;22.17;;;;;;;;;;4973596;28;20417;-74
2024/01/14 12:13:59;;;;;;;70.20;23.27;;;;;;;;;;4972421;28;20839;-74
2024/01/14 12:16:25;;;;;;;73.70;22.37;;;;;;;;;;4973614;28;20448;-74
2024/01/14 12:18:51;;;;;;;63.53;21.70;;;;;;;;;;4973524;28;20412;-73
2024/01/14 12:21:17;;;;;;;55.30;20.47;;;;;;;;;;4973758;28;20776;-74
2024/01/14 12:23:43;;;;;;;55.57;22.57;;;;;;;;;;4973591;28;20559;-73
2024/01/14 12:26:10;;;;;;;59.27;21.57;;;;;;;;;;4973207;28;20440;-73
2024/01/14 12:28:36;;;;;;;71.13;23.63;;;;;;;;;;4973636;28;20495;-73
2024/01/14 12:31:04;;;;;;;49.90;20.80;;;;;;;;;;4972085;28;20511;-74
2024/01/14 12:33:30;;;;;;;62.13;23.03;;;;;;;;;;4973411;28;20478;-73
2024/01/14 12:35:56;;;;;;;70.63;23.20;;;;;;;;;;4973021;28;20510;-73
2024/01/14 12:38:22;;;;;;;68.43;24.17;;;;;;;;;;4972846;28;20967;-73
2024/01/14 12:40:48;;;;;;;67.10;22.90;;;;;;;;;;4973121;28;20443;-73
2024/01/14 12:43:15;;;;;;;69.33;21.93;;;;;;;;;;4972081;28;20462;-74
2024/01/14 12:45:48;;;;;;;65.10;21.10;;;;;;;;;;4971936;28;20451;-73
2024/01/14 12:48:19;;;;;;;74.00;22.50;;;;;;;;;;4973622;28;20443;-74
2024/01/14 12:50:45;;;;;;;60.17;21.40;;;;;;;;;;4973672;28;20503;-74
2024/01/14 12:53:12;;;;;;;56.23;19.80;;;;;;;;;;4974196;28;20456;-73
2024/01/14 12:55:38;;;;;;;62.83;23.50;;;;;;;;;;4973247;28;20408;-74
2024/01/14 12:58:04;;;;;;;59.73;22.90;;;;;;;;;;4973501;28;20408;-74
2024/01/14 13:00:30;;;;;;;63.40;22.67;;;;;;;;;;4973977;28;20408;-74
2024/01/14 13:02:56;;;;;;;62.50;22.20;;;;;;;;;;4976803;28;20923;-74
2024/01/14 13:05:23;;;;;;;61.97;23.53;;;;;;;;;;4977204;28;20470;-74
2024/01/14 13:07:49;;;;;;;59.53;22.77;;;;;;;;;;4977790;28;20908;-74
2024/01/14 13:10:15;;;;;;;66.07;23.00;;;;;;;;;;4979286;28;20750;-74
2024/01/14 13:12:41;;;;;;;61.83;21.33;;;;;;;;;;4979162;28;20436;-74
2024/01/14 13:15:07;;;;;;;66.70;22.93;;;;;;;;;;4976614;28;20942;-75
2024/01/14 13:17:34;;;;;;;65.43;21.63;;;;;;;;;;4972344;28;20453;-74
2024/01/14 13:20:00;;;;;;;66.23;21.70;;;;;;;;;;4975994;28;20512;-75
2024/01/14 13:22:26;;;;;;;67.47;23.90;;;;;;;;;;4962146;28;20867;-76
2024/01/14 13:24:52;;;;;;;67.27;22.70;;;;;;;;;;4961308;28;20471;-76
2024/01/14 13:27:18;;;;;;;64.13;21.60;;;;;;;;;;4970875;28;20516;-77
2024/01/14 13:29:45;;;;;;;66.17;23.80;;;;;;;;;;4963047;28;20504;-75
2024/01/14 13:32:11;;;;;;;56.10;20.70;;;;;;;;;;4961497;28;20413;-73
2024/01/14 13:34:38;;;;;;;61.47;22.10;;;;;;;;;;4962426;28;20424;-73
2024/01/14 13:37:04;;;;;;;63.70;22.20;;;;;;;;;;4958679;28;20451;-73
2024/01/14 13:39:30;;;;;;;66.23;20.87;;;;;;;;;;4971737;28;20444;-76
2024/01/14 13:41:56;;;;;;;54.40;20.60;;;;;;;;;;4980819;28;20423;-75
2024/01/14 13:44:22;;;;;;;64.37;22.93;;;;;;;;;;4968493;28;20464;-74
2024/01/14 13:46:48;;;;;;;57.80;21.13;;;;;;;;;;4972661;28;20443;-75
2024/01/14 13:49:14;;;;;;;65.73;21.73;;;;;;;;;;4964759;28;20447;-77
2024/01/14 13:51:40;;;;;;;64.10;24.53;;;;;;;;;;4956110;28;20428;-77
2024/01/14 13:54:06;;;;;;;62.87;24.13;;;;;;;;;;4956899;28;20421;-78
2024/01/14 13:56:32;;;;;;;72.37;23.17;;;;;;;;;;4956374;28;20447;-75
2024/01/14 13:58:59;;;;;;;68.33;23.40;;;;;;;;;;4955338;28;21133;-75
2024/01/14 14:01:25;;;;;;;64.40;24.30;;;;;;;;;;4974048;28;20433;-75
2024/01/14 14:03:51;;;;;;;56.57;20.50;;;;;;;;;;4982165;28;20541;-76
2024/01/14 14:06:17;;;;;;;67.53;23.27;;;;;;;;;;4966300;28;20971;-75
2024/01/14 14:08:43;;;;;;;65.97;24.30;;;;;;;;;;4959093;28;20975;-75
2024/01/14 14:11:09;;;;;;;62.87;23.17;;;;;;;;;;4967517;28;20943;-74
2024/01/14 14:13:35;;;;;;;73.50;23.00;;;;;;;;;;4964734;28;20427;-75
2024/01/14 14:16:02;;;;;;;70.87;21.07;;;;;;;;;;4957106;28;20460;-75
2024/01/14 14:18:28;;;;;;;68.93;23.40;;;;;;;;;;4964330;28;20773;-75
2024/01/14 14:20:54;;;;;;;61.53;22.03;;;;;;;;;;4976693;28;20424;-75
2024/01/14 14:23:20;;;;;;;65.43;23.20;;;;;;;;;;4974765;28;20539;-77
2024/01/14 14:25:46;;;;;;;60.80;22.80;;;;;;;;;;4975634;28;20446;-75
2024/01/14 14:28:12;;;;;;;73.27;24.07;;;;;;;;;;4972388;28;20909;-75
2024/01/14 14:30:38;;;;;;;66.27;23.30;;;;;;;;;;4964313;28;20416;-75
2024/01/14 14:33:04;;;;;;;62.90;22.13;;;;;;;;;;4966562;28;20451;-75
2024/01/14 14:35:32;;;;;;;70.40;23.57;;;;;;;;;;4969155;28;20499;-74
2024/01/14 14:37:58;;;;;;;63.07;22.33;;;;;;;;;;4974382;28;20420;-74
2024/01/14 14:40:24;;;;;;;66.57;22.63;;;;;;;;;;4975285;28;20820;-74
2024/01/14 14:42:50;;;;;;;79.70;23.40;;;;;;;;;;4975310;28;20479;-73
2024/01/14 14:45:16;;;;;;;72.20;23.17;;;;;;;;;;4970669;28;20527;-73
2024/01/14 14:47:42;;;;;;;72.20;23.77;;;;;;;;;;4956772;28;20462;-73
2024/01/14 14:50:08;;;;;;;65.03;23.83;;;;;;;;;;4966553;28;20962;-73
2024/01/14 14:52:34;;;;;;;65.93;23.70;;;;;;;;;;4966818;28;20416;-74
2024/01/14 14:55:01;;;;;;;64.37;23.00;;;;;;;;;;4964394;28;20428;-75
2024/01/14 14:57:27;;;;;;;67.40;22.80;;;;;;;;;;4974667;28;20462;-75
2024/01/14 14:59:52;;;;;;;67.63;24.83;;;;;;;;;;4976306;28;20918;-74
2024/01/14 15:02:18;;;;;;;80.93;24.00;;;;;;;;;;4972640;28;20425;-74
2024/01/14 15:04:44;;;;;;;56.60;24.53;;;;;;;;;;4957211;28;20924;-74
2024/01/14 15:07:10;;;;;;;65.60;24.80;;;;;;;;;;4962836;28;20792;-74
2024/01/14 15:09:36;;;;;;;66.37;23.60;;;;;;;;;;4972595;28;20791;-73
2024/01/14 15:12:02;;;;;;;60.40;21.43;;;;;;;;;;4970855;28;20448;-74
2024/01/14 15:14:28;;;;;;;62.07;22.10;;;;;;;;;;4965434;28;20424;-74
2024/01/14 15:16:54;;;;;;;77.13;23.00;;;;;;;;;;4969801;28;20463;-74
2024/01/14 15:19:20;;;;;;;71.27;21.73;;;;;;;;;;4962364;28;20435;-75
2024/01/14 15:21:46;;;;;;;67.90;24.87;;;;;;;;;;4973308;28;20419;-75
2024/01/14 15:24:12;;;;;;;70.23;24.53;;;;;;;;;;4973751;28;20495;-75
2024/01/14 15:26:38;;;;;;;57.77;21.20;;;;;;;;;;4972987;28;20460;-74
2024/01/14 15:29:04;;;;;;;68.83;22.63;;;;;;;;;;4972426;28;20412;-75
2024/01/14 15:31:30;;;;;;;67.63;22.70;;;;;;;;;;4965648;28;20541;-72
2024/01/14 15:33:56;;;;;;;73.47;23.97;;;;;;;;;;4955277;28;20467;-75
2024/01/14 15:36:22;;;;;;;68.27;20.43;;;;;;;;;;4954733;28;20845;-75
2024/01/14 15:38:49;;;;;;;65.63;22.13;;;;;;;;;;4953884;28;20793;-77
2024/01/14 15:41:15;;;;;;;56.43;20.93;;;;;;;;;;4954968;28;20938;-75
2024/01/14 15:43:41;;;;;;;68.40;21.87;;;;;;;;;;4955330;28;20951;-77
2024/01/14 15:46:07;;;;;;;67.60;22.90;;;;;;;;;;4984431;28;20511;-77
2024/01/14 15:48:38;;;;;;;74.77;22.20;;;;;;;;;;4982796;28;20469;-76
2024/01/14 15:51:05;;;;;;;72.63;25.77;;;;;;;;;;4968175;28;20874;-76
2024/01/14 15:53:31;;;;;;;57.27;21.50;;;;;;;;;;4962382;28;20431;-75
2024/01/14 15:55:57;;;;;;;78.57;23.30;;;;;;;;;;4962921;28;20444;-76
2024/01/14 15:58:23;;;;;;;75.70;22.33;;;;;;;;;;4964141;28;20474;-74
2024/01/14 16:00:48;;;;;;;89.50;25.03;;;;;;;;;;4964913;28;20516;-75
2024/01/14 16:03:14;;;;;;;87.33;25.23;;;;;;;;;;4957408;28;20428;-77
2024/01/14 16:05:40;;;;;;;66.73;23.33;;;;;;;;;;4962674;28;20445;-73
2024/01/14 16:08:06;;;;;;;73.00;23.37;;;;;;;;;;4956058;28;20444;-74
2024/01/14 16:10:32;;;;;;;74.90;28.77;;;;;;;;;;4957248;28;20564;-72
2024/01/14 16:12:58;;;;;;;71.43;22.03;;;;;;;;;;4974573;28;20455;-73
2024/01/14 16:15:24;;;;;;;68.57;23.20;;;;;;;;;;4973696;28;20498;-75
2024/01/14 16:17:51;;;;;;;89.13;26.53;;;;;;;;;;4964573;28;20438;-76
2024/01/14 16:20:17;;;;;;;78.03;24.43;;;;;;;;;;4963497;28;20472;-76
2024/01/14 16:22:44;;;;;;;68.67;25.30;;;;;;;;;;4963995;28;20746;-76
2024/01/14 16:25:10;;;;;;;76.03;25.83;;;;;;;;;;4959130;28;20474;-76
2024/01/14 16:27:36;;;;;;;79.13;25.10;;;;;;;;;;4962645;28;20507;-75
2024/01/14 16:30:04;;;;;;;73.73;24.60;;;;;;;;;;4957740;28;20831;-75
2024/01/14 16:32:30;;;;;;;78.13;24.30;;;;;;;;;;4960418;28;20428;-75
2024/01/14 16:34:56;;;;;;;80.20;27.03;;;;;;;;;;4970129;28;20429;-76
2024/01/14 16:37:22;;;;;;;85.23;27.50;;;;;;;;;;4957838;28;20439;-74
2024/01/14 16:39:48;;;;;;;95.47;31.03;;;;;;;;;;4978553;28;21024;-75
2024/01/14 16:42:14;;;;;;;84.60;28.60;;;;;;;;;;4964661;28;20416;-75
2024/01/14 16:44:40;;;;;;;86.20;28.37;;;;;;;;;;4958322;28;20975;-75
2024/01/14 16:47:07;;;;;;;88.77;27.80;;;;;;;;;;4966269;28;20491;-73
2024/01/14 16:49:33;;;;;;;74.53;25.23;;;;;;;;;;4965264;28;20944;-73
2024/01/14 16:51:59;;;;;;;70.77;24.53;;;;;;;;;;4954362;28;20421;-73
2024/01/14 16:54:24;;;;;;;85.97;26.83;;;;;;;;;;4962447;28;20436;-74
2024/01/14 16:56:50;;;;;;;78.17;29.20;;;;;;;;;;4953535;28;20514;-74
2024/01/14 16:59:16;;;;;;;81.87;27.93;;;;;;;;;;4956892;28;20753;-74
2024/01/14 17:01:42;;;;;;;92.20;27.80;;;;;;;;;;4966544;28;20582;-75
2024/01/14 17:04:08;;;;;;;77.43;25.90;;;;;;;;;;4955964;28;20478;-75
2024/01/14 17:06:35;;;;;;;82.53;29.43;;;;;;;;;;4967823;28;20791;-76
2024/01/14 17:09:02;;;;;;;77.60;27.33;;;;;;;;;;4956194;28;20428;-76
2024/01/14 17:11:28;;;;;;;90.60;28.13;;;;;;;;;;4954092;28;20417;-75
2024/01/14 17:13:54;;;;;;;84.37;25.47;;;;;;;;;;4952360;28;20500;-75
2024/01/14 17:16:21;;;;;;;76.60;25.67;;;;;;;;;;4964756;28;20458;-76
2024/01/14 17:18:48;;;;;;;85.83;25.00;;;;;;;;;;4972405;28;21019;-74
2024/01/14 17:21:14;;;;;;;76.47;24.57;;;;;;;;;;4963656;28;20428;-74
2024/01/14 17:23:40;;;;;;;82.60;25.20;;;;;;;;;;4960196;28;20464;-74
2024/01/14 17:26:07;;;;;;;76.97;24.80;;;;;;;;;;4981277;28;20435;-75
2024/01/14 17:28:33;;;;;;;78.77;25.20;;;;;;;;;;4974485;28;20487;-75
2024/01/14 17:31:00;;;;;;;71.27;23.73;;;;;;;;;;4977841;28;20416;-75
2024/01/14 17:33:26;;;;;;;69.30;23.93;;;;;;;;;;4980075;28;20448;-76
2024/01/14 17:35:51;;;;;;;101.47;27.30;;;;;;;;;;4971264;28;20633;-75
2024/01/14 17:38:18;;;;;;;91.33;26.57;;;;;;;;;;4965119;28;20463;-74
2024/01/14 17:40:44;;;;;;;94.87;24.43;;;;;;;;;;4962103;28;20486;-75
2024/01/14 17:43:10;;;;;;;88.73;28.00;;;;;;;;;;4963331;28;20902;-75
2024/01/14 17:45:36;;;;;;;96.43;27.23;;;;;;;;;;4972652;28;20423;-75
2024/01/14 17:48:02;;;;;;;87.27;27.40;;;;;;;;;;4957195;28;20435;-75
2024/01/14 17:50:28;;;;;;;91.40;28.00;;;;;;;;;;4974232;28;20421;-75
2024/01/14 17:52:55;;;;;;;86.40;26.93;;;;;;;;;;4976350;28;20442;-74
2024/01/14 17:55:21;;;;;;;87.07;27.90;;;;;;;;;;4956812;28;20420;-75
2024/01/14 17:57:47;;;;;;;96.27;30.57;;;;;;;;;;4966379;28;20423;-75
2024/01/14 18:00:13;;;;;;;85.67;29.07;;;;;;;;;;4973459;28;20537;-75
2024/01/14 18:02:39;;;;;;;107.90;33.57;;;;;;;;;;4965794;28;20832;-75
2024/01/14 18:05:05;;;;;;;108.10;31.30;;;;;;;;;;4967902;28;20506;-76
2024/01/14 18:07:31;;;;;;;115.77;31.83;;;;;;;;;;4969352;28;20431;-76
2024/01/14 18:09:57;;;;;;;111.17;31.10;;;;;;;;;;4966207;28;20423;-76
2024/01/14 18:12:23;;;;;;;106.20;29.33;;;;;;;;;;4958221;28;20412;-74
2024/01/14 18:14:49;;;;;;;108.53;33.20;;;;;;;;;;4956945;28;20449;-76
2024/01/14 18:17:15;;;;;;;104.47;30.93;;;;;;;;;;4973518;28;21000;-76
2024/01/14 18:19:41;;;;;;;121.30;30.60;;;;;;;;;;4959370;28;20427;-76
2024/01/14 18:22:09;;;;;;;143.53;33.80;;;;;;;;;;4959259;28;20417;-77
2024/01/14 18:24:35;;;;;;;136.23;32.23;;;;;;;;;;4957162;28;20472;-76
2024/01/14 18:27:02;;;;;;;125.63;34.50;;;;;;;;;;4956754;28;20447;-78
2024/01/14 18:29:28;;;;;;;121.73;34.83;;;;;;;;;;4957177;28;20423;-77
2024/01/14 18:31:57;;;;;;;114.10;31.90;;;;;;;;;;4957468;28;20511;-75
2024/01/14 18:34:23;;;;;;;133.13;32.93;;;;;;;;;;4972467;28;20500;-78
2024/01/14 18:36:52;;;;;;;121.87;33.73;;;;;;;;;;4954828;28;20453;-77
2024/01/14 18:39:18;;;;;;;117.73;33.57;;;;;;;;;;4959341;28;20432;-76
2024/01/14 18:41:49;;;;;;;131.30;34.17;;;;;;;;;;4957385;28;20436;-76
2024/01/14 18:44:15;;;;;;;126.27;32.70;;;;;;;;;;4958577;28;20468;-76
2024/01/14 18:46:41;;;;;;;115.63;35.77;;;;;;;;;;4962540;28;20464;-76
2024/01/14 18:49:07;;;;;;;111.97;31.83;;;;;;;;;;4970940;28;20420;-76
2024/01/14 18:51:37;;;;;;;124.03;33.83;;;;;;;;;;4966908;28;20896;-77
2024/01/14 18:54:05;;;;;;;114.83;32.97;;;;;;;;;;4962729;28;20435;-76
2024/01/14 18:56:31;;;;;;;102.70;30.40;;;;;;;;;;4960231;28;20456;-76
2024/01/14 18:58:57;;;;;;;117.87;32.03;;;;;;;;;;4956467;28;20945;-76
2024/01/14 19:01:22;;;;;;;117.03;33.30;;;;;;;;;;4964534;28;20427;-76
2024/01/14 19:03:48;;;;;;;119.40;32.40;;;;;;;;;;4957147;28;20476;-76
2024/01/14 19:06:15;;;;;;;111.67;35.17;;;;;;;;;;4973396;28;20475;-76
2024/01/14 19:08:41;;;;;;;114.53;36.00;;;;;;;;;;4966014;28;20420;-76
2024/01/14 19:11:08;;;;;;;135.90;32.80;;;;;;;;;;4966578;28;20421;-76
2024/01/14 19:13:34;;;;;;;112.43;35.20;;;;;;;;;;4960911;28;20424;-75
2024/01/14 19:16:00;;;;;;;122.80;33.73;;;;;;;;;;4959936;28;20496;-75
2024/01/14 19:18:26;;;;;;;124.47;32.23;;;;;;;;;;4958362;28;20432;-73
2024/01/14 19:20:53;;;;;;;109.37;31.03;;;;;;;;;;4977910;28;20427;-75
2024/01/14 19:23:19;;;;;;;110.33;34.83;;;;;;;;;;4956887;28;20425;-75
2024/01/14 19:25:45;;;;;;;155.23;35.03;;;;;;;;;;4961214;28;20794;-73
2024/01/14 19:28:11;;;;;;;115.70;33.17;;;;;;;;;;4958721;28;20424;-74
2024/01/14 19:30:37;;;;;;;107.77;32.43;;;;;;;;;;4969089;28;20458;-74
2024/01/14 19:33:03;;;;;;;116.87;35.00;;;;;;;;;;4963539;28;20888;-74
2024/01/14 19:35:29;;;;;;;116.63;32.50;;;;;;;;;;4955617;28;20436;-74
2024/01/14 19:37:55;;;;;;;121.87;34.73;;;;;;;;;;4961219;28;20424;-75
2024/01/14 19:40:21;;;;;;;129.27;33.37;;;;;;;;;;4982058;28;20471;-74
2024/01/14 19:42:47;;;;;;;136.40;35.40;;;;;;;;;;4981665;28;20447;-74
2024/01/14 19:45:13;;;;;;;108.40;34.20;;;;;;;;;;4978693;28;20586;-74
2024/01/14 19:47:39;;;;;;;113.43;31.00;;;;;;;;;;4968363;28;20523;-74
2024/01/14 19:50:05;;;;;;;126.77;32.10;;;;;;;;;;4958931;28;20427;-75
2024/01/14 19:52:32;;;;;;;97.27;29.63;;;;;;;;;;4970768;28;20423;-76
2024/01/14 19:54:58;;;;;;;94.83;31.33;;;;;;;;;;4960055;28;20428;-76
2024/01/14 19:57:24;;;;;;;99.33;31.63;;;;;;;;;;4954796;28;20518;-76
2024/01/14 19:59:51;;;;;;;115.27;34.63;;;;;;;;;;4969296;28;20424;-75
2024/01/14 20:02:17;;;;;;;103.57;33.53;;;;;;;;;;4955851;28;20997;-74
2024/01/14 20:04:43;;;;;;;110.73;31.13;;;;;;;;;;4969688;28;20559;-75
2024/01/14 20:07:09;;;;;;;115.70;32.90;;;;;;;;;;5079542;23;20599;-76
2024/01/14 20:09:35;;;;;;;109.50;34.43;;;;;;;;;;4976920;28;20420;-77
2024/01/14 20:12:02;;;;;;;121.40;33.10;;;;;;;;;;4976803;28;20466;-75
2024/01/14 20:14:28;;;;;;;121.70;32.53;;;;;;;;;;4959610;28;20413;-73